sensor_id;sensor_type;location;lat;lon;timestamp;P1;durP1;ratioP1;P2;durP2;ratioP2
11238;SDS011;5677;48.488;13.436;2023-12-29T00:00:41;3.70;;;3.30;;
11238;SDS011;5677;48.488;13.436;2023-12-29T00:03:07;3.20;;;2.87;;
11238;SDS011;5677;48.488;13.436;2023-12-29T00:05:34;5.00;;;3.10;;
11238;SDS011;5677;48.488;13.436;2023-12-29T00:08:01;2.93;;;2.60;;
11238;SDS011;5677;48.488;13.436;2023-12-29T00:10:28;4.47;;;3.27;;
11238;SDS011;5677;48.488;13.436;2023-12-29T00:12:55;4.87;;;2.90;;
11238;SDS011;5677;48.488;13.436;2023-12-29T00:15:22;3.67;;;3.00;;
11238;SDS011;5677;48.488;13.436;2023-12-29T00:17:50;3.60;;;3.20;;
11238;SDS011;5677;48.488;13.436;2023-12-29T00:20:17;3.97;;;2.93;;
11238;SDS011;5677;48.488;13.436;2023-12-29T00:22:46;3.83;;;3.30;;
11238;SDS011;5677;48.488;13.436;2023-12-29T00:25:14;4.10;;;3.33;;
11238;SDS011;5677;48.488;13.436;2023-12-29T00:27:41;3.90;;;2.77;;
11238;SDS011;5677;48.488;13.436;2023-12-29T00:30:09;3.50;;;3.20;;
11238;SDS011;5677;48.488;13.436;2023-12-29T00:32:37;2.97;;;2.67;;
11238;SDS011;5677;48.488;13.436;2023-12-29T00:35:05;3.73;;;3.33;;
11238;SDS011;5677;48.488;13.436;2023-12-29T00:37:32;4.93;;;3.10;;
11238;SDS011;5677;48.488;13.436;2023-12-29T00:39:59;3.93;;;2.77;;
11238;SDS011;5677;48.488;13.436;2023-12-29T00:42:26;3.43;;;2.63;;
11238;SDS011;5677;48.488;13.436;2023-12-29T00:44:54;4.33;;;2.83;;
11238;SDS011;5677;48.488;13.436;2023-12-29T00:47:20;3.40;;;2.87;;
11238;SDS011;5677;48.488;13.436;2023-12-29T00:49:48;4.43;;;3.10;;
11238;SDS011;5677;48.488;13.436;2023-12-29T00:52:16;4.43;;;3.07;;
11238;SDS011;5677;48.488;13.436;2023-12-29T00:54:43;3.40;;;3.00;;
11238;SDS011;5677;48.488;13.436;2023-12-29T00:57:10;4.00;;;3.23;;
11238;SDS011;5677;48.488;13.436;2023-12-29T00:59:37;3.40;;;2.73;;
11238;SDS011;5677;48.488;13.436;2023-12-29T01:02:04;3.70;;;3.40;;
11238;SDS011;5677;48.488;13.436;2023-12-29T01:04:31;4.30;;;3.10;;
11238;SDS011;5677;48.488;13.436;2023-12-29T01:06:58;3.20;;;2.90;;
11238;SDS011;5677;48.488;13.436;2023-12-29T01:09:27;3.70;;;3.20;;
11238;SDS011;5677;48.488;13.436;2023-12-29T01:11:54;3.00;;;2.70;;
11238;SDS011;5677;48.488;13.436;2023-12-29T01:14:22;4.17;;;3.20;;
11238;SDS011;5677;48.488;13.436;2023-12-29T01:16:49;3.80;;;3.00;;
11238;SDS011;5677;48.488;13.436;2023-12-29T01:19:16;3.67;;;3.10;;
11238;SDS011;5677;48.488;13.436;2023-12-29T01:21:43;4.17;;;2.90;;
11238;SDS011;5677;48.488;13.436;2023-12-29T01:24:10;3.53;;;3.00;;
11238;SDS011;5677;48.488;13.436;2023-12-29T01:26:39;3.73;;;3.10;;
11238;SDS011;5677;48.488;13.436;2023-12-29T01:29:05;3.87;;;3.03;;
11238;SDS011;5677;48.488;13.436;2023-12-29T01:31:34;4.47;;;3.23;;
11238;SDS011;5677;48.488;13.436;2023-12-29T01:34:01;3.57;;;2.67;;
11238;SDS011;5677;48.488;13.436;2023-12-29T01:36:28;3.37;;;2.90;;
11238;SDS011;5677;48.488;13.436;2023-12-29T01:38:55;3.43;;;3.00;;
11238;SDS011;5677;48.488;13.436;2023-12-29T01:41:22;3.07;;;2.77;;
11238;SDS011;5677;48.488;13.436;2023-12-29T01:44:13;3.37;;;3.03;;
11238;SDS011;5677;48.488;13.436;2023-12-29T01:46:47;3.83;;;3.00;;
11238;SDS011;5677;48.488;13.436;2023-12-29T01:49:16;4.87;;;3.27;;
11238;SDS011;5677;48.488;13.436;2023-12-29T01:51:44;3.60;;;3.27;;
11238;SDS011;5677;48.488;13.436;2023-12-29T01:54:11;3.37;;;3.07;;
11238;SDS011;5677;48.488;13.436;2023-12-29T01:56:39;3.60;;;2.97;;
11238;SDS011;5677;48.488;13.436;2023-12-29T01:59:09;3.87;;;3.00;;
11238;SDS011;5677;48.488;13.436;2023-12-29T02:01:36;3.53;;;2.93;;
11238;SDS011;5677;48.488;13.436;2023-12-29T02:04:05;4.40;;;3.30;;
11238;SDS011;5677;48.488;13.436;2023-12-29T02:06:33;3.50;;;2.93;;
11238;SDS011;5677;48.488;13.436;2023-12-29T02:09:01;4.17;;;3.20;;
11238;SDS011;5677;48.488;13.436;2023-12-29T02:11:28;3.43;;;2.83;;
11238;SDS011;5677;48.488;13.436;2023-12-29T02:13:56;3.43;;;2.70;;
11238;SDS011;5677;48.488;13.436;2023-12-29T02:16:27;3.80;;;3.30;;
11238;SDS011;5677;48.488;13.436;2023-12-29T02:19:01;3.87;;;3.07;;
11238;SDS011;5677;48.488;13.436;2023-12-29T02:21:41;3.17;;;2.60;;
11238;SDS011;5677;48.488;13.436;2023-12-29T02:24:07;3.70;;;2.80;;
11238;SDS011;5677;48.488;13.436;2023-12-29T02:26:36;3.60;;;2.90;;
11238;SDS011;5677;48.488;13.436;2023-12-29T02:29:05;3.70;;;3.17;;
11238;SDS011;5677;48.488;13.436;2023-12-29T02:31:35;3.37;;;2.90;;
11238;SDS011;5677;48.488;13.436;2023-12-29T02:34:06;3.23;;;2.93;;
11238;SDS011;5677;48.488;13.436;2023-12-29T02:36:36;5.57;;;3.13;;
11238;SDS011;5677;48.488;13.436;2023-12-29T02:39:07;3.33;;;3.00;;
11238;SDS011;5677;48.488;13.436;2023-12-29T02:41:36;3.77;;;2.80;;
11238;SDS011;5677;48.488;13.436;2023-12-29T02:44:03;3.80;;;3.10;;
11238;SDS011;5677;48.488;13.436;2023-12-29T02:46:30;4.23;;;2.90;;
11238;SDS011;5677;48.488;13.436;2023-12-29T02:48:57;3.27;;;2.83;;
11238;SDS011;5677;48.488;13.436;2023-12-29T02:51:24;3.77;;;3.30;;
11238;SDS011;5677;48.488;13.436;2023-12-29T02:53:51;3.10;;;2.77;;
11238;SDS011;5677;48.488;13.436;2023-12-29T02:56:17;3.30;;;2.90;;
11238;SDS011;5677;48.488;13.436;2023-12-29T02:58:46;4.73;;;3.03;;
11238;SDS011;5677;48.488;13.436;2023-12-29T03:01:16;2.80;;;2.50;;
11238;SDS011;5677;48.488;13.436;2023-12-29T03:03:43;3.60;;;3.00;;
11238;SDS011;5677;48.488;13.436;2023-12-29T03:06:10;3.23;;;2.80;;
11238;SDS011;5677;48.488;13.436;2023-12-29T03:08:36;4.90;;;2.73;;
11238;SDS011;5677;48.488;13.436;2023-12-29T03:11:03;3.10;;;2.60;;
11238;SDS011;5677;48.488;13.436;2023-12-29T03:13:30;3.10;;;2.80;;
11238;SDS011;5677;48.488;13.436;2023-12-29T03:15:58;3.57;;;3.03;;
11238;SDS011;5677;48.488;13.436;2023-12-29T03:18:25;4.00;;;3.20;;
11238;SDS011;5677;48.488;13.436;2023-12-29T03:20:52;3.40;;;3.07;;
11238;SDS011;5677;48.488;13.436;2023-12-29T03:23:18;3.83;;;2.97;;
11238;SDS011;5677;48.488;13.436;2023-12-29T03:25:45;3.17;;;2.70;;
11238;SDS011;5677;48.488;13.436;2023-12-29T03:28:12;2.97;;;2.50;;
11238;SDS011;5677;48.488;13.436;2023-12-29T03:30:39;3.03;;;2.77;;
11238;SDS011;5677;48.488;13.436;2023-12-29T03:33:07;2.87;;;2.53;;
11238;SDS011;5677;48.488;13.436;2023-12-29T03:35:33;2.90;;;2.60;;
11238;SDS011;5677;48.488;13.436;2023-12-29T03:38:00;3.67;;;2.70;;
11238;SDS011;5677;48.488;13.436;2023-12-29T03:40:27;3.40;;;2.80;;
11238;SDS011;5677;48.488;13.436;2023-12-29T03:42:54;3.17;;;2.80;;
11238;SDS011;5677;48.488;13.436;2023-12-29T03:45:21;4.07;;;2.60;;
11238;SDS011;5677;48.488;13.436;2023-12-29T03:47:47;3.17;;;2.70;;
11238;SDS011;5677;48.488;13.436;2023-12-29T03:50:17;3.10;;;2.50;;
11238;SDS011;5677;48.488;13.436;2023-12-29T03:52:45;3.10;;;2.53;;
11238;SDS011;5677;48.488;13.436;2023-12-29T03:55:12;3.33;;;2.87;;
11238;SDS011;5677;48.488;13.436;2023-12-29T03:57:39;4.10;;;2.93;;
11238;SDS011;5677;48.488;13.436;2023-12-29T04:00:10;3.37;;;2.67;;
11238;SDS011;5677;48.488;13.436;2023-12-29T04:02:40;3.30;;;3.00;;
11238;SDS011;5677;48.488;13.436;2023-12-29T04:05:08;3.67;;;2.70;;
11238;SDS011;5677;48.488;13.436;2023-12-29T04:07:39;2.90;;;2.67;;
11238;SDS011;5677;48.488;13.436;2023-12-29T04:10:07;2.87;;;2.60;;
11238;SDS011;5677;48.488;13.436;2023-12-29T04:12:34;3.20;;;2.90;;
11238;SDS011;5677;48.488;13.436;2023-12-29T04:15:00;2.97;;;2.67;;
11238;SDS011;5677;48.488;13.436;2023-12-29T04:17:27;3.10;;;2.80;;
11238;SDS011;5677;48.488;13.436;2023-12-29T04:19:54;3.07;;;2.70;;
11238;SDS011;5677;48.488;13.436;2023-12-29T04:22:21;2.80;;;2.30;;
11238;SDS011;5677;48.488;13.436;2023-12-29T04:24:50;2.60;;;2.40;;
11238;SDS011;5677;48.488;13.436;2023-12-29T04:27:17;3.07;;;2.53;;
11238;SDS011;5677;48.488;13.436;2023-12-29T04:29:44;3.03;;;2.73;;
11238;SDS011;5677;48.488;13.436;2023-12-29T04:32:11;3.03;;;2.57;;
11238;SDS011;5677;48.488;13.436;2023-12-29T04:34:38;3.20;;;2.63;;
11238;SDS011;5677;48.488;13.436;2023-12-29T04:37:05;3.20;;;2.37;;
11238;SDS011;5677;48.488;13.436;2023-12-29T04:39:31;3.13;;;2.73;;
11238;SDS011;5677;48.488;13.436;2023-12-29T04:42:00;3.10;;;2.53;;
11238;SDS011;5677;48.488;13.436;2023-12-29T04:44:27;3.73;;;2.57;;
11238;SDS011;5677;48.488;13.436;2023-12-29T04:46:53;3.87;;;2.50;;
11238;SDS011;5677;48.488;13.436;2023-12-29T04:49:20;3.00;;;2.60;;
11238;SDS011;5677;48.488;13.436;2023-12-29T04:51:47;3.10;;;2.60;;
11238;SDS011;5677;48.488;13.436;2023-12-29T04:54:14;2.70;;;2.50;;
11238;SDS011;5677;48.488;13.436;2023-12-29T04:56:41;2.40;;;2.20;;
11238;SDS011;5677;48.488;13.436;2023-12-29T04:59:09;4.60;;;2.40;;
11238;SDS011;5677;48.488;13.436;2023-12-29T05:01:36;2.97;;;2.40;;
11238;SDS011;5677;48.488;13.436;2023-12-29T05:04:02;3.17;;;2.27;;
11238;SDS011;5677;48.488;13.436;2023-12-29T05:06:29;3.17;;;2.53;;
11238;SDS011;5677;48.488;13.436;2023-12-29T05:08:56;6.73;;;2.50;;
11238;SDS011;5677;48.488;13.436;2023-12-29T05:11:23;2.57;;;2.27;;
11238;SDS011;5677;48.488;13.436;2023-12-29T05:13:50;2.40;;;2.20;;
11238;SDS011;5677;48.488;13.436;2023-12-29T05:16:18;2.97;;;2.40;;
11238;SDS011;5677;48.488;13.436;2023-12-29T05:18:45;3.70;;;2.57;;
11238;SDS011;5677;48.488;13.436;2023-12-29T05:21:16;2.60;;;2.40;;
11238;SDS011;5677;48.488;13.436;2023-12-29T05:23:43;2.40;;;2.20;;
11238;SDS011;5677;48.488;13.436;2023-12-29T05:26:10;2.60;;;2.17;;
11238;SDS011;5677;48.488;13.436;2023-12-29T05:28:37;3.03;;;2.50;;
11238;SDS011;5677;48.488;13.436;2023-12-29T05:31:03;2.83;;;2.50;;
11238;SDS011;5677;48.488;13.436;2023-12-29T05:33:32;2.60;;;2.40;;
11238;SDS011;5677;48.488;13.436;2023-12-29T05:35:59;4.13;;;2.17;;
11238;SDS011;5677;48.488;13.436;2023-12-29T05:38:33;3.53;;;2.43;;
11238;SDS011;5677;48.488;13.436;2023-12-29T05:41:00;2.40;;;2.20;;
11238;SDS011;5677;48.488;13.436;2023-12-29T05:43:28;2.57;;;2.33;;
11238;SDS011;5677;48.488;13.436;2023-12-29T05:45:57;2.80;;;2.27;;
11238;SDS011;5677;48.488;13.436;2023-12-29T05:48:24;3.10;;;2.50;;
11238;SDS011;5677;48.488;13.436;2023-12-29T05:50:52;4.77;;;2.60;;
11238;SDS011;5677;48.488;13.436;2023-12-29T05:53:19;2.50;;;2.20;;
11238;SDS011;5677;48.488;13.436;2023-12-29T05:55:46;2.63;;;2.43;;
11238;SDS011;5677;48.488;13.436;2023-12-29T05:58:13;3.97;;;2.13;;
11238;SDS011;5677;48.488;13.436;2023-12-29T06:00:39;2.50;;;2.07;;
11238;SDS011;5677;48.488;13.436;2023-12-29T06:03:06;7.17;;;2.40;;
11238;SDS011;5677;48.488;13.436;2023-12-29T06:05:33;4.67;;;2.23;;
11238;SDS011;5677;48.488;13.436;2023-12-29T06:08:01;4.20;;;2.33;;
11238;SDS011;5677;48.488;13.436;2023-12-29T06:10:28;3.33;;;2.30;;
11238;SDS011;5677;48.488;13.436;2023-12-29T06:12:54;4.23;;;2.53;;
11238;SDS011;5677;48.488;13.436;2023-12-29T06:15:21;3.13;;;2.57;;
11238;SDS011;5677;48.488;13.436;2023-12-29T06:17:48;5.67;;;2.60;;
11238;SDS011;5677;48.488;13.436;2023-12-29T06:20:15;2.67;;;2.17;;
11238;SDS011;5677;48.488;13.436;2023-12-29T06:22:41;4.30;;;2.60;;
11238;SDS011;5677;48.488;13.436;2023-12-29T06:25:11;3.10;;;2.23;;
11238;SDS011;5677;48.488;13.436;2023-12-29T06:27:40;3.30;;;2.40;;
11238;SDS011;5677;48.488;13.436;2023-12-29T06:30:07;3.70;;;2.67;;
11238;SDS011;5677;48.488;13.436;2023-12-29T06:32:35;3.90;;;2.70;;
11238;SDS011;5677;48.488;13.436;2023-12-29T06:35:03;2.60;;;2.40;;
11238;SDS011;5677;48.488;13.436;2023-12-29T06:37:30;2.30;;;2.03;;
11238;SDS011;5677;48.488;13.436;2023-12-29T06:39:57;4.17;;;2.13;;
11238;SDS011;5677;48.488;13.436;2023-12-29T06:42:26;3.03;;;2.50;;
11238;SDS011;5677;48.488;13.436;2023-12-29T06:44:53;3.30;;;2.57;;
11238;SDS011;5677;48.488;13.436;2023-12-29T06:47:19;2.70;;;2.27;;
11238;SDS011;5677;48.488;13.436;2023-12-29T06:49:46;2.60;;;2.40;;
11238;SDS011;5677;48.488;13.436;2023-12-29T06:52:14;3.40;;;2.43;;
11238;SDS011;5677;48.488;13.436;2023-12-29T06:54:41;3.10;;;2.80;;
11238;SDS011;5677;48.488;13.436;2023-12-29T06:57:08;5.00;;;2.60;;
11238;SDS011;5677;48.488;13.436;2023-12-29T06:59:36;3.10;;;2.40;;
11238;SDS011;5677;48.488;13.436;2023-12-29T07:02:03;3.93;;;2.63;;
11238;SDS011;5677;48.488;13.436;2023-12-29T07:04:30;2.90;;;2.10;;
11238;SDS011;5677;48.488;13.436;2023-12-29T07:06:57;4.00;;;2.37;;
11238;SDS011;5677;48.488;13.436;2023-12-29T07:09:26;3.63;;;3.33;;
11238;SDS011;5677;48.488;13.436;2023-12-29T07:11:53;4.03;;;3.40;;
11238;SDS011;5677;48.488;13.436;2023-12-29T07:14:20;2.83;;;2.60;;
11238;SDS011;5677;48.488;13.436;2023-12-29T07:16:48;2.80;;;2.50;;
11238;SDS011;5677;48.488;13.436;2023-12-29T07:19:15;3.60;;;2.53;;
11238;SDS011;5677;48.488;13.436;2023-12-29T07:21:41;2.67;;;2.47;;
11238;SDS011;5677;48.488;13.436;2023-12-29T07:24:08;2.67;;;2.47;;
11238;SDS011;5677;48.488;13.436;2023-12-29T07:26:35;4.03;;;2.80;;
11238;SDS011;5677;48.488;13.436;2023-12-29T07:29:02;5.60;;;2.60;;
11238;SDS011;5677;48.488;13.436;2023-12-29T07:31:30;4.20;;;2.87;;
11238;SDS011;5677;48.488;13.436;2023-12-29T07:33:59;4.27;;;2.40;;
11238;SDS011;5677;48.488;13.436;2023-12-29T07:36:26;5.47;;;3.13;;
11238;SDS011;5677;48.488;13.436;2023-12-29T07:38:53;8.80;;;2.57;;
11238;SDS011;5677;48.488;13.436;2023-12-29T07:41:20;3.23;;;2.93;;
11238;SDS011;5677;48.488;13.436;2023-12-29T07:43:46;3.63;;;2.73;;
11238;SDS011;5677;48.488;13.436;2023-12-29T07:46:14;5.50;;;2.97;;
11238;SDS011;5677;48.488;13.436;2023-12-29T07:48:50;2.70;;;2.40;;
11238;SDS011;5677;48.488;13.436;2023-12-29T07:51:18;2.80;;;2.50;;
11238;SDS011;5677;48.488;13.436;2023-12-29T07:53:45;3.30;;;2.30;;
11238;SDS011;5677;48.488;13.436;2023-12-29T07:56:12;3.13;;;2.57;;
11238;SDS011;5677;48.488;13.436;2023-12-29T07:58:39;3.10;;;2.40;;
11238;SDS011;5677;48.488;13.436;2023-12-29T08:01:06;3.40;;;2.60;;
11238;SDS011;5677;48.488;13.436;2023-12-29T08:03:33;4.50;;;2.50;;
11238;SDS011;5677;48.488;13.436;2023-12-29T08:06:01;2.50;;;2.30;;
11238;SDS011;5677;48.488;13.436;2023-12-29T08:08:29;2.93;;;2.10;;
11238;SDS011;5677;48.488;13.436;2023-12-29T08:10:56;4.97;;;2.60;;
11238;SDS011;5677;48.488;13.436;2023-12-29T08:13:23;3.40;;;2.47;;
11238;SDS011;5677;48.488;13.436;2023-12-29T08:15:49;2.37;;;2.17;;
11238;SDS011;5677;48.488;13.436;2023-12-29T08:18:16;3.33;;;2.73;;
11238;SDS011;5677;48.488;13.436;2023-12-29T08:20:43;3.47;;;2.40;;
11238;SDS011;5677;48.488;13.436;2023-12-29T08:23:10;3.27;;;2.57;;
11238;SDS011;5677;48.488;13.436;2023-12-29T08:25:38;2.97;;;2.33;;
11238;SDS011;5677;48.488;13.436;2023-12-29T08:28:05;3.17;;;2.20;;
11238;SDS011;5677;48.488;13.436;2023-12-29T08:30:34;5.17;;;2.93;;
11238;SDS011;5677;48.488;13.436;2023-12-29T08:33:02;2.80;;;2.57;;
11238;SDS011;5677;48.488;13.436;2023-12-29T08:35:29;3.97;;;2.63;;
11238;SDS011;5677;48.488;13.436;2023-12-29T08:37:55;4.30;;;2.60;;
11238;SDS011;5677;48.488;13.436;2023-12-29T08:40:22;4.83;;;2.47;;
11238;SDS011;5677;48.488;13.436;2023-12-29T08:42:50;2.53;;;2.30;;
11238;SDS011;5677;48.488;13.436;2023-12-29T08:45:18;2.60;;;2.23;;
11238;SDS011;5677;48.488;13.436;2023-12-29T08:47:45;1.97;;;1.80;;
11238;SDS011;5677;48.488;13.436;2023-12-29T08:50:11;4.30;;;2.47;;
11238;SDS011;5677;48.488;13.436;2023-12-29T08:52:39;2.87;;;2.63;;
11238;SDS011;5677;48.488;13.436;2023-12-29T08:55:06;5.07;;;3.20;;
11238;SDS011;5677;48.488;13.436;2023-12-29T08:57:35;7.23;;;3.63;;
11238;SDS011;5677;48.488;13.436;2023-12-29T09:00:03;5.70;;;3.43;;
11238;SDS011;5677;48.488;13.436;2023-12-29T09:02:31;6.77;;;3.10;;
11238;SDS011;5677;48.488;13.436;2023-12-29T09:04:57;5.13;;;2.87;;
11238;SDS011;5677;48.488;13.436;2023-12-29T09:07:24;4.73;;;3.07;;
11238;SDS011;5677;48.488;13.436;2023-12-29T09:09:53;5.03;;;3.30;;
11238;SDS011;5677;48.488;13.436;2023-12-29T09:12:20;5.43;;;2.97;;
11238;SDS011;5677;48.488;13.436;2023-12-29T09:14:46;7.07;;;3.13;;
11238;SDS011;5677;48.488;13.436;2023-12-29T09:17:14;8.67;;;3.10;;
11238;SDS011;5677;48.488;13.436;2023-12-29T09:19:41;9.23;;;3.20;;
11238;SDS011;5677;48.488;13.436;2023-12-29T09:22:08;6.83;;;2.67;;
11238;SDS011;5677;48.488;13.436;2023-12-29T09:24:34;4.97;;;3.10;;
11238;SDS011;5677;48.488;13.436;2023-12-29T09:27:02;9.77;;;3.40;;
11238;SDS011;5677;48.488;13.436;2023-12-29T09:29:29;8.47;;;3.47;;
11238;SDS011;5677;48.488;13.436;2023-12-29T09:31:55;7.80;;;3.77;;
11238;SDS011;5677;48.488;13.436;2023-12-29T09:34:24;10.93;;;3.60;;
11238;SDS011;5677;48.488;13.436;2023-12-29T09:36:50;7.63;;;3.20;;
11238;SDS011;5677;48.488;13.436;2023-12-29T09:39:17;7.70;;;3.50;;
11238;SDS011;5677;48.488;13.436;2023-12-29T09:41:45;10.60;;;3.53;;
11238;SDS011;5677;48.488;13.436;2023-12-29T09:44:13;7.40;;;3.13;;
11238;SDS011;5677;48.488;13.436;2023-12-29T09:46:41;6.27;;;3.43;;
11238;SDS011;5677;48.488;13.436;2023-12-29T09:49:08;7.67;;;3.67;;
11238;SDS011;5677;48.488;13.436;2023-12-29T09:51:37;8.13;;;3.50;;
11238;SDS011;5677;48.488;13.436;2023-12-29T09:54:04;8.43;;;3.60;;
11238;SDS011;5677;48.488;13.436;2023-12-29T09:56:31;10.60;;;3.90;;
11238;SDS011;5677;48.488;13.436;2023-12-29T09:58:59;7.10;;;3.40;;
11238;SDS011;5677;48.488;13.436;2023-12-29T10:01:27;5.40;;;3.67;;
11238;SDS011;5677;48.488;13.436;2023-12-29T10:03:54;8.37;;;3.47;;
11238;SDS011;5677;48.488;13.436;2023-12-29T10:06:23;9.60;;;4.07;;
11238;SDS011;5677;48.488;13.436;2023-12-29T10:08:52;7.80;;;3.73;;
11238;SDS011;5677;48.488;13.436;2023-12-29T10:11:21;6.00;;;3.13;;
11238;SDS011;5677;48.488;13.436;2023-12-29T10:13:49;7.80;;;3.27;;
11238;SDS011;5677;48.488;13.436;2023-12-29T10:16:22;7.20;;;3.40;;
11238;SDS011;5677;48.488;13.436;2023-12-29T10:18:56;10.73;;;3.70;;
11238;SDS011;5677;48.488;13.436;2023-12-29T10:21:29;8.00;;;3.47;;
11238;SDS011;5677;48.488;13.436;2023-12-29T10:24:05;11.87;;;3.40;;
11238;SDS011;5677;48.488;13.436;2023-12-29T10:26:36;10.13;;;4.10;;
11238;SDS011;5677;48.488;13.436;2023-12-29T10:29:03;9.80;;;3.97;;
11238;SDS011;5677;48.488;13.436;2023-12-29T10:31:30;10.37;;;3.47;;
11238;SDS011;5677;48.488;13.436;2023-12-29T10:36:47;13.27;;;4.73;;
11238;SDS011;5677;48.488;13.436;2023-12-29T10:39:16;6.30;;;3.80;;
11238;SDS011;5677;48.488;13.436;2023-12-29T10:41:43;11.60;;;4.77;;
11238;SDS011;5677;48.488;13.436;2023-12-29T10:44:09;11.27;;;4.87;;
11238;SDS011;5677;48.488;13.436;2023-12-29T10:46:36;15.13;;;4.37;;
11238;SDS011;5677;48.488;13.436;2023-12-29T10:49:06;12.37;;;4.90;;
11238;SDS011;5677;48.488;13.436;2023-12-29T10:51:34;8.43;;;4.23;;
11238;SDS011;5677;48.488;13.436;2023-12-29T10:54:02;11.17;;;4.40;;
11238;SDS011;5677;48.488;13.436;2023-12-29T10:56:30;8.83;;;4.30;;
11238;SDS011;5677;48.488;13.436;2023-12-29T10:58:58;7.43;;;4.53;;
11238;SDS011;5677;48.488;13.436;2023-12-29T11:01:27;7.87;;;4.60;;
11238;SDS011;5677;48.488;13.436;2023-12-29T11:03:57;9.83;;;4.23;;
11238;SDS011;5677;48.488;13.436;2023-12-29T11:06:26;12.20;;;3.90;;
11238;SDS011;5677;48.488;13.436;2023-12-29T11:08:54;10.27;;;4.57;;
11238;SDS011;5677;48.488;13.436;2023-12-29T11:11:21;8.37;;;3.90;;
11238;SDS011;5677;48.488;13.436;2023-12-29T11:13:50;8.43;;;3.93;;
11238;SDS011;5677;48.488;13.436;2023-12-29T11:16:17;9.97;;;3.97;;
11238;SDS011;5677;48.488;13.436;2023-12-29T11:18:46;7.40;;;3.70;;
11238;SDS011;5677;48.488;13.436;2023-12-29T11:21:15;8.53;;;4.50;;
11238;SDS011;5677;48.488;13.436;2023-12-29T11:23:43;5.20;;;3.50;;
11238;SDS011;5677;48.488;13.436;2023-12-29T11:26:09;6.17;;;4.00;;
11238;SDS011;5677;48.488;13.436;2023-12-29T11:28:37;7.73;;;3.73;;
11238;SDS011;5677;48.488;13.436;2023-12-29T11:31:05;6.00;;;3.67;;
11238;SDS011;5677;48.488;13.436;2023-12-29T11:33:34;4.37;;;2.90;;
11238;SDS011;5677;48.488;13.436;2023-12-29T11:36:08;8.20;;;3.63;;
11238;SDS011;5677;48.488;13.436;2023-12-29T11:38:47;22.53;;;6.20;;
11238;SDS011;5677;48.488;13.436;2023-12-29T11:41:21;16.17;;;5.47;;
11238;SDS011;5677;48.488;13.436;2023-12-29T11:43:56;18.33;;;6.30;;
11238;SDS011;5677;48.488;13.436;2023-12-29T11:46:34;17.20;;;6.53;;
11238;SDS011;5677;48.488;13.436;2023-12-29T11:49:02;14.40;;;5.47;;
11238;SDS011;5677;48.488;13.436;2023-12-29T11:51:30;13.53;;;5.57;;
11238;SDS011;5677;48.488;13.436;2023-12-29T11:53:58;13.50;;;5.10;;
11238;SDS011;5677;48.488;13.436;2023-12-29T11:56:30;12.33;;;5.17;;
11238;SDS011;5677;48.488;13.436;2023-12-29T11:59:13;13.53;;;4.30;;
11238;SDS011;5677;48.488;13.436;2023-12-29T12:01:42;14.60;;;4.50;;
11238;SDS011;5677;48.488;13.436;2023-12-29T12:07:06;11.50;;;4.70;;
11238;SDS011;5677;48.488;13.436;2023-12-29T12:09:34;14.50;;;5.20;;
11238;SDS011;5677;48.488;13.436;2023-12-29T12:12:01;10.57;;;4.73;;
11238;SDS011;5677;48.488;13.436;2023-12-29T12:14:48;10.33;;;4.27;;
11238;SDS011;5677;48.488;13.436;2023-12-29T12:17:27;10.60;;;4.30;;
11238;SDS011;5677;48.488;13.436;2023-12-29T12:19:55;11.73;;;4.23;;
11238;SDS011;5677;48.488;13.436;2023-12-29T12:22:25;8.60;;;3.67;;
11238;SDS011;5677;48.488;13.436;2023-12-29T12:24:56;7.77;;;4.00;;
11238;SDS011;5677;48.488;13.436;2023-12-29T12:27:24;6.53;;;3.33;;
11238;SDS011;5677;48.488;13.436;2023-12-29T12:29:52;21.17;;;4.10;;
11238;SDS011;5677;48.488;13.436;2023-12-29T12:32:22;12.70;;;3.30;;
11238;SDS011;5677;48.488;13.436;2023-12-29T12:34:50;9.47;;;3.00;;
11238;SDS011;5677;48.488;13.436;2023-12-29T12:37:21;16.97;;;3.70;;
11238;SDS011;5677;48.488;13.436;2023-12-29T12:39:49;11.90;;;3.57;;
11238;SDS011;5677;48.488;13.436;2023-12-29T12:42:16;12.07;;;3.97;;
11238;SDS011;5677;48.488;13.436;2023-12-29T12:44:47;9.33;;;3.27;;
11238;SDS011;5677;48.488;13.436;2023-12-29T12:47:18;9.03;;;3.40;;
11238;SDS011;5677;48.488;13.436;2023-12-29T12:50:04;9.33;;;3.53;;
11238;SDS011;5677;48.488;13.436;2023-12-29T12:52:32;8.20;;;3.20;;
11238;SDS011;5677;48.488;13.436;2023-12-29T12:55:00;4.63;;;2.57;;
11238;SDS011;5677;48.488;13.436;2023-12-29T12:57:30;9.63;;;3.40;;
11238;SDS011;5677;48.488;13.436;2023-12-29T12:59:58;6.93;;;3.10;;
11238;SDS011;5677;48.488;13.436;2023-12-29T13:02:26;9.37;;;4.00;;
11238;SDS011;5677;48.488;13.436;2023-12-29T13:04:54;9.97;;;3.60;;
11238;SDS011;5677;48.488;13.436;2023-12-29T13:07:22;8.50;;;3.00;;
11238;SDS011;5677;48.488;13.436;2023-12-29T13:09:50;6.57;;;2.90;;
11238;SDS011;5677;48.488;13.436;2023-12-29T13:12:18;7.80;;;2.70;;
11238;SDS011;5677;48.488;13.436;2023-12-29T13:14:45;7.50;;;2.80;;
11238;SDS011;5677;48.488;13.436;2023-12-29T13:17:13;5.20;;;2.90;;
11238;SDS011;5677;48.488;13.436;2023-12-29T13:19:41;4.87;;;2.50;;
11238;SDS011;5677;48.488;13.436;2023-12-29T13:22:09;9.13;;;2.73;;
11238;SDS011;5677;48.488;13.436;2023-12-29T13:24:42;4.47;;;2.63;;
11238;SDS011;5677;48.488;13.436;2023-12-29T13:27:09;7.13;;;2.77;;
11238;SDS011;5677;48.488;13.436;2023-12-29T13:29:38;7.90;;;2.97;;
11238;SDS011;5677;48.488;13.436;2023-12-29T13:32:07;11.10;;;3.17;;
11238;SDS011;5677;48.488;13.436;2023-12-29T13:34:37;8.53;;;3.40;;
11238;SDS011;5677;48.488;13.436;2023-12-29T13:37:17;12.03;;;2.80;;
11238;SDS011;5677;48.488;13.436;2023-12-29T13:39:51;10.90;;;3.33;;
11238;SDS011;5677;48.488;13.436;2023-12-29T13:42:22;9.10;;;3.07;;
11238;SDS011;5677;48.488;13.436;2023-12-29T13:44:53;13.80;;;3.27;;
11238;SDS011;5677;48.488;13.436;2023-12-29T13:47:21;11.00;;;3.03;;
11238;SDS011;5677;48.488;13.436;2023-12-29T13:49:47;9.63;;;3.07;;
11238;SDS011;5677;48.488;13.436;2023-12-29T13:52:14;8.87;;;3.13;;
11238;SDS011;5677;48.488;13.436;2023-12-29T13:54:43;9.93;;;3.43;;
11238;SDS011;5677;48.488;13.436;2023-12-29T13:57:11;7.87;;;3.63;;
11238;SDS011;5677;48.488;13.436;2023-12-29T13:59:38;6.93;;;3.43;;
11238;SDS011;5677;48.488;13.436;2023-12-29T14:02:18;10.20;;;3.47;;
11238;SDS011;5677;48.488;13.436;2023-12-29T14:04:51;11.47;;;3.10;;
11238;SDS011;5677;48.488;13.436;2023-12-29T14:07:34;4.27;;;2.33;;
11238;SDS011;5677;48.488;13.436;2023-12-29T14:10:01;9.60;;;2.67;;
11238;SDS011;5677;48.488;13.436;2023-12-29T14:12:29;7.03;;;2.33;;
11238;SDS011;5677;48.488;13.436;2023-12-29T14:15:01;9.37;;;2.73;;
11238;SDS011;5677;48.488;13.436;2023-12-29T14:17:29;4.77;;;2.53;;
11238;SDS011;5677;48.488;13.436;2023-12-29T14:19:56;9.30;;;2.63;;
11238;SDS011;5677;48.488;13.436;2023-12-29T14:22:27;6.57;;;2.60;;
11238;SDS011;5677;48.488;13.436;2023-12-29T14:24:59;5.10;;;2.00;;
11238;SDS011;5677;48.488;13.436;2023-12-29T14:27:28;6.53;;;2.33;;
11238;SDS011;5677;48.488;13.436;2023-12-29T14:29:55;6.57;;;2.80;;
11238;SDS011;5677;48.488;13.436;2023-12-29T14:32:23;9.10;;;2.60;;
11238;SDS011;5677;48.488;13.436;2023-12-29T14:34:50;5.43;;;2.60;;
11238;SDS011;5677;48.488;13.436;2023-12-29T14:37:20;6.03;;;2.53;;
11238;SDS011;5677;48.488;13.436;2023-12-29T14:39:47;4.50;;;2.27;;
11238;SDS011;5677;48.488;13.436;2023-12-29T14:42:15;3.83;;;2.00;;
11238;SDS011;5677;48.488;13.436;2023-12-29T14:44:44;3.60;;;2.07;;
11238;SDS011;5677;48.488;13.436;2023-12-29T14:47:12;5.13;;;2.33;;
11238;SDS011;5677;48.488;13.436;2023-12-29T14:49:39;6.93;;;2.67;;
11238;SDS011;5677;48.488;13.436;2023-12-29T14:52:06;5.53;;;2.43;;
11238;SDS011;5677;48.488;13.436;2023-12-29T14:54:32;5.80;;;2.47;;
11238;SDS011;5677;48.488;13.436;2023-12-29T14:56:59;5.03;;;2.40;;